sensor_id;sensor_type;location;lat;lon;timestamp;P1;durP1;ratioP1;P2;durP2;ratioP2
73841;SDS011;62184;52.006;5.924;2023-04-08T00:00:59;126.85;;;9.60;;
73841;SDS011;62184;52.006;5.924;2023-04-08T00:03:25;107.45;;;7.63;;
73841;SDS011;62184;52.006;5.924;2023-04-08T00:05:54;79.90;;;7.22;;
73841;SDS011;62184;52.006;5.924;2023-04-08T00:08:21;11.85;;;4.82;;
73841;SDS011;62184;52.006;5.924;2023-04-08T00:10:47;34.13;;;5.40;;
73841;SDS011;62184;52.006;5.924;2023-04-08T00:13:14;12.02;;;4.78;;
73841;SDS011;62184;52.006;5.924;2023-04-08T00:15:40;17.90;;;5.18;;
73841;SDS011;62184;52.006;5.924;2023-04-08T00:18:07;14.57;;;6.10;;
73841;SDS011;62184;52.006;5.924;2023-04-08T00:20:33;18.38;;;7.28;;
73841;SDS011;62184;52.006;5.924;2023-04-08T00:23:02;22.13;;;8.18;;
73841;SDS011;62184;52.006;5.924;2023-04-08T00:25:29;16.63;;;6.90;;
73841;SDS011;62184;52.006;5.924;2023-04-08T00:27:56;51.00;;;7.40;;
73841;SDS011;62184;52.006;5.924;2023-04-08T00:30:22;17.30;;;6.30;;
73841;SDS011;62184;52.006;5.924;2023-04-08T00:32:49;98.10;;;7.87;;
73841;SDS011;62184;52.006;5.924;2023-04-08T00:35:15;20.13;;;6.17;;
73841;SDS011;62184;52.006;5.924;2023-04-08T00:37:42;17.40;;;5.93;;
73841;SDS011;62184;52.006;5.924;2023-04-08T00:40:11;40.83;;;6.80;;
73841;SDS011;62184;52.006;5.924;2023-04-08T00:42:37;31.95;;;5.68;;
73841;SDS011;62184;52.006;5.924;2023-04-08T00:45:04;18.70;;;5.32;;
73841;SDS011;62184;52.006;5.924;2023-04-08T00:47:33;15.83;;;6.00;;
73841;SDS011;62184;52.006;5.924;2023-04-08T00:50:01;61.37;;;7.20;;
73841;SDS011;62184;52.006;5.924;2023-04-08T00:52:29;25.92;;;5.63;;
73841;SDS011;62184;52.006;5.924;2023-04-08T00:54:55;27.40;;;5.82;;
73841;SDS011;62184;52.006;5.924;2023-04-08T00:57:24;17.55;;;5.60;;
73841;SDS011;62184;52.006;5.924;2023-04-08T00:59:51;20.30;;;5.73;;
73841;SDS011;62184;52.006;5.924;2023-04-08T01:02:18;34.25;;;6.30;;
73841;SDS011;62184;52.006;5.924;2023-04-08T01:05:01;37.23;;;6.33;;
73841;SDS011;62184;52.006;5.924;2023-04-08T01:07:32;22.73;;;6.57;;
73841;SDS011;62184;52.006;5.924;2023-04-08T01:10:02;15.43;;;6.37;;
73841;SDS011;62184;52.006;5.924;2023-04-08T01:12:42;20.98;;;6.90;;
73841;SDS011;62184;52.006;5.924;2023-04-08T01:15:16;25.33;;;6.65;;
73841;SDS011;62184;52.006;5.924;2023-04-08T01:17:43;36.70;;;7.40;;
73841;SDS011;62184;52.006;5.924;2023-04-08T01:20:13;45.45;;;7.20;;
73841;SDS011;62184;52.006;5.924;2023-04-08T01:22:48;61.28;;;7.75;;
73841;SDS011;62184;52.006;5.924;2023-04-08T01:25:29;24.13;;;6.33;;
73841;SDS011;62184;52.006;5.924;2023-04-08T01:28:00;31.00;;;6.30;;
73841;SDS011;62184;52.006;5.924;2023-04-08T01:30:32;25.42;;;6.25;;
73841;SDS011;62184;52.006;5.924;2023-04-08T01:33:00;34.35;;;7.30;;
73841;SDS011;62184;52.006;5.924;2023-04-08T01:35:28;23.02;;;6.70;;
73841;SDS011;62184;52.006;5.924;2023-04-08T01:37:56;16.45;;;6.50;;
73841;SDS011;62184;52.006;5.924;2023-04-08T01:40:25;17.25;;;7.10;;
73841;SDS011;62184;52.006;5.924;2023-04-08T01:42:52;19.73;;;6.70;;
73841;SDS011;62184;52.006;5.924;2023-04-08T01:45:24;26.52;;;7.18;;
73841;SDS011;62184;52.006;5.924;2023-04-08T01:47:53;69.20;;;8.50;;
73841;SDS011;62184;52.006;5.924;2023-04-08T01:50:21;23.83;;;7.22;;
73841;SDS011;62184;52.006;5.924;2023-04-08T01:52:52;39.58;;;7.65;;
73841;SDS011;62184;52.006;5.924;2023-04-08T01:55:20;55.25;;;8.18;;
73841;SDS011;62184;52.006;5.924;2023-04-08T01:57:49;48.47;;;8.38;;
73841;SDS011;62184;52.006;5.924;2023-04-08T02:00:19;174.80;;;11.97;;
73841;SDS011;62184;52.006;5.924;2023-04-08T02:02:52;37.30;;;7.80;;
73841;SDS011;62184;52.006;5.924;2023-04-08T02:05:22;59.13;;;8.17;;
73841;SDS011;62184;52.006;5.924;2023-04-08T02:07:48;21.57;;;6.90;;
73841;SDS011;62184;52.006;5.924;2023-04-08T02:10:15;31.60;;;7.90;;
73841;SDS011;62184;52.006;5.924;2023-04-08T02:12:41;16.88;;;6.90;;
73841;SDS011;62184;52.006;5.924;2023-04-08T02:15:09;69.77;;;8.57;;
73841;SDS011;62184;52.006;5.924;2023-04-08T02:17:42;236.38;;;14.15;;
73841;SDS011;62184;52.006;5.924;2023-04-08T02:20:12;60.47;;;8.87;;
73841;SDS011;62184;52.006;5.924;2023-04-08T02:22:46;64.18;;;8.82;;
73841;SDS011;62184;52.006;5.924;2023-04-08T02:25:16;24.90;;;7.80;;
73841;SDS011;62184;52.006;5.924;2023-04-08T02:27:49;32.90;;;7.97;;
73841;SDS011;62184;52.006;5.924;2023-04-08T02:30:19;26.42;;;7.88;;
73841;SDS011;62184;52.006;5.924;2023-04-08T02:32:50;42.03;;;7.90;;
73841;SDS011;62184;52.006;5.924;2023-04-08T02:35:18;28.57;;;7.57;;
73841;SDS011;62184;52.006;5.924;2023-04-08T02:37:45;60.30;;;8.88;;
73841;SDS011;62184;52.006;5.924;2023-04-08T02:40:22;70.60;;;9.30;;
73841;SDS011;62184;52.006;5.924;2023-04-08T02:42:51;49.53;;;8.93;;
73841;SDS011;62184;52.006;5.924;2023-04-08T02:45:18;77.20;;;9.82;;
73841;SDS011;62184;52.006;5.924;2023-04-08T02:47:45;118.57;;;11.47;;
73841;SDS011;62184;52.006;5.924;2023-04-08T02:50:14;29.33;;;7.82;;
73841;SDS011;62184;52.006;5.924;2023-04-08T02:52:40;26.40;;;8.60;;
73841;SDS011;62184;52.006;5.924;2023-04-08T02:55:07;32.30;;;11.23;;
73841;SDS011;62184;52.006;5.924;2023-04-08T02:57:33;30.97;;;11.17;;
73841;SDS011;62184;52.006;5.924;2023-04-08T03:00:00;43.22;;;13.93;;
73841;SDS011;62184;52.006;5.924;2023-04-08T03:02:27;38.92;;;14.55;;
73841;SDS011;62184;52.006;5.924;2023-04-08T03:04:53;35.97;;;14.77;;
73841;SDS011;62184;52.006;5.924;2023-04-08T03:07:22;39.28;;;14.50;;
73841;SDS011;62184;52.006;5.924;2023-04-08T03:09:49;32.80;;;12.73;;
73841;SDS011;62184;52.006;5.924;2023-04-08T03:12:15;45.33;;;16.88;;
73841;SDS011;62184;52.006;5.924;2023-04-08T03:14:42;51.47;;;19.00;;
73841;SDS011;62184;52.006;5.924;2023-04-08T03:17:08;59.35;;;22.02;;
73841;SDS011;62184;52.006;5.924;2023-04-08T03:19:35;65.75;;;22.00;;
73841;SDS011;62184;52.006;5.924;2023-04-08T03:22:01;49.63;;;17.35;;
73841;SDS011;62184;52.006;5.924;2023-04-08T03:24:30;40.13;;;15.10;;
73841;SDS011;62184;52.006;5.924;2023-04-08T03:26:57;57.88;;;20.60;;
73841;SDS011;62184;52.006;5.924;2023-04-08T03:29:23;61.67;;;22.10;;
73841;SDS011;62184;52.006;5.924;2023-04-08T03:31:49;61.65;;;22.38;;
73841;SDS011;62184;52.006;5.924;2023-04-08T03:34:16;60.95;;;21.52;;
73841;SDS011;62184;52.006;5.924;2023-04-08T03:36:42;51.03;;;18.80;;
73841;SDS011;62184;52.006;5.924;2023-04-08T03:39:09;51.07;;;20.00;;
73841;SDS011;62184;52.006;5.924;2023-04-08T03:41:38;55.70;;;21.10;;
73841;SDS011;62184;52.006;5.924;2023-04-08T03:44:04;54.33;;;20.67;;
73841;SDS011;62184;52.006;5.924;2023-04-08T03:46:31;55.22;;;20.35;;
73841;SDS011;62184;52.006;5.924;2023-04-08T03:48:57;62.00;;;23.67;;
73841;SDS011;62184;52.006;5.924;2023-04-08T03:51:23;70.97;;;25.23;;
73841;SDS011;62184;52.006;5.924;2023-04-08T03:53:50;63.75;;;23.35;;
73841;SDS011;62184;52.006;5.924;2023-04-08T03:56:16;79.35;;;27.48;;
73841;SDS011;62184;52.006;5.924;2023-04-08T03:58:46;73.68;;;26.42;;
73841;SDS011;62184;52.006;5.924;2023-04-08T04:01:13;70.00;;;25.48;;
73841;SDS011;62184;52.006;5.924;2023-04-08T04:03:39;72.03;;;26.17;;
73841;SDS011;62184;52.006;5.924;2023-04-08T04:06:05;70.50;;;25.95;;
73841;SDS011;62184;52.006;5.924;2023-04-08T04:08:32;72.07;;;26.40;;
73841;SDS011;62184;52.006;5.924;2023-04-08T04:10:58;74.85;;;26.38;;
73841;SDS011;62184;52.006;5.924;2023-04-08T04:13:25;68.68;;;24.65;;
73841;SDS011;62184;52.006;5.924;2023-04-08T04:15:55;77.15;;;28.08;;
73841;SDS011;62184;52.006;5.924;2023-04-08T04:18:21;80.55;;;28.23;;
73841;SDS011;62184;52.006;5.924;2023-04-08T04:20:48;80.80;;;27.60;;
73841;SDS011;62184;52.006;5.924;2023-04-08T04:23:14;86.00;;;30.27;;
73841;SDS011;62184;52.006;5.924;2023-04-08T04:25:40;92.15;;;31.52;;
73841;SDS011;62184;52.006;5.924;2023-04-08T04:28:07;88.47;;;30.58;;
73841;SDS011;62184;52.006;5.924;2023-04-08T04:30:35;84.72;;;29.30;;
73841;SDS011;62184;52.006;5.924;2023-04-08T04:33:04;79.07;;;28.40;;
73841;SDS011;62184;52.006;5.924;2023-04-08T04:35:31;79.10;;;27.90;;
73841;SDS011;62184;52.006;5.924;2023-04-08T04:37:58;78.88;;;27.38;;
73841;SDS011;62184;52.006;5.924;2023-04-08T04:40:25;80.93;;;28.38;;
73841;SDS011;62184;52.006;5.924;2023-04-08T04:42:51;76.85;;;27.50;;
73841;SDS011;62184;52.006;5.924;2023-04-08T04:45:17;78.97;;;27.20;;
73841;SDS011;62184;52.006;5.924;2023-04-08T04:47:44;71.45;;;27.13;;
73841;SDS011;62184;52.006;5.924;2023-04-08T04:50:13;68.78;;;25.65;;
73841;SDS011;62184;52.006;5.924;2023-04-08T04:52:39;71.83;;;26.17;;
73841;SDS011;62184;52.006;5.924;2023-04-08T04:55:06;61.92;;;24.65;;
73841;SDS011;62184;52.006;5.924;2023-04-08T04:57:33;61.92;;;24.73;;
73841;SDS011;62184;52.006;5.924;2023-04-08T05:00:00;64.32;;;24.65;;
73841;SDS011;62184;52.006;5.924;2023-04-08T05:02:26;59.08;;;24.30;;
73841;SDS011;62184;52.006;5.924;2023-04-08T05:04:53;62.67;;;24.02;;
73841;SDS011;62184;52.006;5.924;2023-04-08T05:07:22;61.47;;;23.67;;
73841;SDS011;62184;52.006;5.924;2023-04-08T05:09:48;59.97;;;23.83;;
73841;SDS011;62184;52.006;5.924;2023-04-08T05:12:14;60.97;;;23.50;;
73841;SDS011;62184;52.006;5.924;2023-04-08T05:14:41;60.55;;;24.05;;
73841;SDS011;62184;52.006;5.924;2023-04-08T05:17:07;61.83;;;23.85;;
73841;SDS011;62184;52.006;5.924;2023-04-08T05:19:34;63.55;;;23.55;;
73841;SDS011;62184;52.006;5.924;2023-04-08T05:22:00;61.35;;;23.70;;
73841;SDS011;62184;52.006;5.924;2023-04-08T05:24:29;65.95;;;24.08;;
73841;SDS011;62184;52.006;5.924;2023-04-08T05:26:56;61.53;;;23.55;;
73841;SDS011;62184;52.006;5.924;2023-04-08T05:29:22;60.83;;;24.03;;
73841;SDS011;62184;52.006;5.924;2023-04-08T05:31:49;58.42;;;22.98;;
73841;SDS011;62184;52.006;5.924;2023-04-08T05:34:15;56.30;;;23.50;;
73841;SDS011;62184;52.006;5.924;2023-04-08T05:36:41;57.95;;;23.15;;
73841;SDS011;62184;52.006;5.924;2023-04-08T05:39:08;56.67;;;22.70;;
73841;SDS011;62184;52.006;5.924;2023-04-08T05:41:37;57.77;;;23.03;;
73841;SDS011;62184;52.006;5.924;2023-04-08T05:44:03;52.95;;;22.00;;
73841;SDS011;62184;52.006;5.924;2023-04-08T05:46:30;57.75;;;22.33;;
73841;SDS011;62184;52.006;5.924;2023-04-08T05:48:56;53.90;;;21.63;;
73841;SDS011;62184;52.006;5.924;2023-04-08T05:51:22;52.47;;;21.95;;
73841;SDS011;62184;52.006;5.924;2023-04-08T05:53:49;49.85;;;20.85;;
73841;SDS011;62184;52.006;5.924;2023-04-08T05:56:15;49.05;;;21.13;;
73841;SDS011;62184;52.006;5.924;2023-04-08T05:58:44;53.13;;;21.83;;
73841;SDS011;62184;52.006;5.924;2023-04-08T06:01:11;52.63;;;22.17;;
73841;SDS011;62184;52.006;5.924;2023-04-08T06:03:38;48.92;;;21.33;;
73841;SDS011;62184;52.006;5.924;2023-04-08T06:06:08;47.87;;;20.93;;
73841;SDS011;62184;52.006;5.924;2023-04-08T06:08:35;49.55;;;21.17;;
73841;SDS011;62184;52.006;5.924;2023-04-08T06:11:01;47.67;;;21.08;;
73841;SDS011;62184;52.006;5.924;2023-04-08T06:13:28;46.20;;;20.70;;
73841;SDS011;62184;52.006;5.924;2023-04-08T06:15:57;51.20;;;21.30;;
73841;SDS011;62184;52.006;5.924;2023-04-08T06:18:23;48.20;;;20.80;;
73841;SDS011;62184;52.006;5.924;2023-04-08T06:20:50;43.47;;;20.43;;
73841;SDS011;62184;52.006;5.924;2023-04-08T06:23:16;44.90;;;20.07;;
73841;SDS011;62184;52.006;5.924;2023-04-08T06:25:43;41.30;;;19.60;;
73841;SDS011;62184;52.006;5.924;2023-04-08T06:28:09;43.28;;;19.85;;
73841;SDS011;62184;52.006;5.924;2023-04-08T06:30:35;38.50;;;19.70;;
73841;SDS011;62184;52.006;5.924;2023-04-08T06:33:06;41.67;;;20.05;;
73841;SDS011;62184;52.006;5.924;2023-04-08T06:35:33;40.08;;;20.00;;
73841;SDS011;62184;52.006;5.924;2023-04-08T06:37:59;38.42;;;18.35;;
73841;SDS011;62184;52.006;5.924;2023-04-08T06:40:26;38.30;;;18.83;;
73841;SDS011;62184;52.006;5.924;2023-04-08T06:42:52;36.28;;;18.48;;
73841;SDS011;62184;52.006;5.924;2023-04-08T06:45:18;39.25;;;19.00;;
73841;SDS011;62184;52.006;5.924;2023-04-08T06:47:45;38.08;;;18.38;;
73841;SDS011;62184;52.006;5.924;2023-04-08T06:50:14;36.20;;;18.02;;
73841;SDS011;62184;52.006;5.924;2023-04-08T06:52:41;35.90;;;18.33;;
73841;SDS011;62184;52.006;5.924;2023-04-08T06:55:07;32.38;;;18.52;;
73841;SDS011;62184;52.006;5.924;2023-04-08T06:57:34;31.05;;;17.25;;
73841;SDS011;62184;52.006;5.924;2023-04-08T07:00:00;31.45;;;17.30;;
73841;SDS011;62184;52.006;5.924;2023-04-08T07:02:27;30.13;;;16.92;;
73841;SDS011;62184;52.006;5.924;2023-04-08T07:04:53;31.58;;;17.33;;
73841;SDS011;62184;52.006;5.924;2023-04-08T07:07:22;29.50;;;16.58;;
73841;SDS011;62184;52.006;5.924;2023-04-08T07:09:49;28.20;;;16.40;;
73841;SDS011;62184;52.006;5.924;2023-04-08T07:12:15;29.35;;;16.83;;
73841;SDS011;62184;52.006;5.924;2023-04-08T07:14:42;25.83;;;17.05;;
73841;SDS011;62184;52.006;5.924;2023-04-08T07:17:08;24.90;;;15.30;;
73841;SDS011;62184;52.006;5.924;2023-04-08T07:19:34;24.45;;;15.10;;
73841;SDS011;62184;52.006;5.924;2023-04-08T07:22:01;22.13;;;14.25;;
73841;SDS011;62184;52.006;5.924;2023-04-08T07:24:30;22.60;;;14.52;;
73841;SDS011;62184;52.006;5.924;2023-04-08T07:26:56;22.70;;;14.15;;
73841;SDS011;62184;52.006;5.924;2023-04-08T07:29:23;22.27;;;14.60;;
73841;SDS011;62184;52.006;5.924;2023-04-08T07:31:49;19.90;;;13.95;;
73841;SDS011;62184;52.006;5.924;2023-04-08T07:34:15;20.25;;;13.90;;
73841;SDS011;62184;52.006;5.924;2023-04-08T07:36:42;22.27;;;14.23;;
73841;SDS011;62184;52.006;5.924;2023-04-08T07:39:09;23.50;;;14.27;;
73841;SDS011;62184;52.006;5.924;2023-04-08T07:41:38;21.67;;;13.98;;
73841;SDS011;62184;52.006;5.924;2023-04-08T07:44:04;22.08;;;13.88;;
73841;SDS011;62184;52.006;5.924;2023-04-08T07:46:31;19.77;;;13.95;;
73841;SDS011;62184;52.006;5.924;2023-04-08T07:49:01;19.45;;;13.27;;
73841;SDS011;62184;52.006;5.924;2023-04-08T07:51:27;19.48;;;13.05;;
73841;SDS011;62184;52.006;5.924;2023-04-08T07:53:54;19.00;;;13.40;;
73841;SDS011;62184;52.006;5.924;2023-04-08T07:56:20;19.23;;;13.25;;
73841;SDS011;62184;52.006;5.924;2023-04-08T07:58:49;17.80;;;12.73;;
73841;SDS011;62184;52.006;5.924;2023-04-08T08:01:16;16.48;;;11.80;;
73841;SDS011;62184;52.006;5.924;2023-04-08T08:03:45;19.05;;;12.65;;
73841;SDS011;62184;52.006;5.924;2023-04-08T08:06:11;18.95;;;12.57;;
73841;SDS011;62184;52.006;5.924;2023-04-08T08:08:38;16.48;;;12.27;;
73841;SDS011;62184;52.006;5.924;2023-04-08T08:11:04;16.35;;;12.38;;
73841;SDS011;62184;52.006;5.924;2023-04-08T08:13:31;16.40;;;12.70;;
73841;SDS011;62184;52.006;5.924;2023-04-08T08:16:00;16.85;;;12.73;;
73841;SDS011;62184;52.006;5.924;2023-04-08T08:18:27;17.92;;;12.90;;
73841;SDS011;62184;52.006;5.924;2023-04-08T08:20:53;17.00;;;12.88;;
73841;SDS011;62184;52.006;5.924;2023-04-08T08:23:20;17.67;;;12.60;;
73841;SDS011;62184;52.006;5.924;2023-04-08T08:25:46;16.03;;;12.13;;
73841;SDS011;62184;52.006;5.924;2023-04-08T08:28:13;16.80;;;12.87;;
73841;SDS011;62184;52.006;5.924;2023-04-08T08:30:39;16.07;;;12.37;;
73841;SDS011;62184;52.006;5.924;2023-04-08T08:33:08;18.27;;;12.93;;
73841;SDS011;62184;52.006;5.924;2023-04-08T08:35:34;16.52;;;12.23;;
73841;SDS011;62184;52.006;5.924;2023-04-08T08:38:01;15.65;;;11.00;;
73841;SDS011;62184;52.006;5.924;2023-04-08T08:40:27;17.05;;;11.43;;
73841;SDS011;62184;52.006;5.924;2023-04-08T08:42:53;14.60;;;10.45;;
73841;SDS011;62184;52.006;5.924;2023-04-08T08:45:20;13.80;;;10.30;;
73841;SDS011;62184;52.006;5.924;2023-04-08T08:47:47;13.82;;;10.70;;
73841;SDS011;62184;52.006;5.924;2023-04-08T08:50:16;15.45;;;10.90;;
73841;SDS011;62184;52.006;5.924;2023-04-08T08:52:46;14.63;;;11.02;;
73841;SDS011;62184;52.006;5.924;2023-04-08T08:55:14;14.10;;;10.90;;
73841;SDS011;62184;52.006;5.924;2023-04-08T08:57:43;14.70;;;10.83;;
73841;SDS011;62184;52.006;5.924;2023-04-08T09:00:10;14.87;;;11.47;;
73841;SDS011;62184;52.006;5.924;2023-04-08T09:02:38;14.80;;;11.05;;
73841;SDS011;62184;52.006;5.924;2023-04-08T09:05:04;14.67;;;11.17;;
73841;SDS011;62184;52.006;5.924;2023-04-08T09:07:36;13.90;;;10.98;;
73841;SDS011;62184;52.006;5.924;2023-04-08T09:10:05;15.13;;;11.63;;
73841;SDS011;62184;52.006;5.924;2023-04-08T09:12:33;15.65;;;11.25;;
73841;SDS011;62184;52.006;5.924;2023-04-08T09:15:03;14.93;;;11.30;;
73841;SDS011;62184;52.006;5.924;2023-04-08T09:17:32;15.23;;;11.20;;
73841;SDS011;62184;52.006;5.924;2023-04-08T09:20:03;14.13;;;11.20;;
73841;SDS011;62184;52.006;5.924;2023-04-08T09:22:32;14.07;;;11.32;;
73841;SDS011;62184;52.006;5.924;2023-04-08T09:25:22;15.18;;;10.77;;
73841;SDS011;62184;52.006;5.924;2023-04-08T09:27:49;15.82;;;10.90;;
73841;SDS011;62184;52.006;5.924;2023-04-08T09:30:16;14.83;;;11.70;;
73841;SDS011;62184;52.006;5.924;2023-04-08T09:32:46;14.70;;;11.43;;
73841;SDS011;62184;52.006;5.924;2023-04-08T09:35:13;14.88;;;11.60;;
73841;SDS011;62184;52.006;5.924;2023-04-08T09:37:42;14.57;;;11.35;;
73841;SDS011;62184;52.006;5.924;2023-04-08T09:40:12;16.00;;;12.03;;
73841;SDS011;62184;52.006;5.924;2023-04-08T09:42:39;14.63;;;11.65;;
73841;SDS011;62184;52.006;5.924;2023-04-08T09:45:09;14.32;;;11.65;;
73841;SDS011;62184;52.006;5.924;2023-04-08T09:47:41;14.52;;;11.40;;
73841;SDS011;62184;52.006;5.924;2023-04-08T09:50:21;15.87;;;11.10;;
73841;SDS011;62184;52.006;5.924;2023-04-08T09:52:59;14.85;;;11.52;;
73841;SDS011;62184;52.006;5.924;2023-04-08T09:55:31;14.98;;;11.50;;
73841;SDS011;62184;52.006;5.924;2023-04-08T09:58:03;14.77;;;11.35;;
73841;SDS011;62184;52.006;5.924;2023-04-08T10:00:41;14.37;;;11.60;;
73841;SDS011;62184;52.006;5.924;2023-04-08T10:03:19;15.23;;;12.00;;
73841;SDS011;62184;52.006;5.924;2023-04-08T10:05:54;15.20;;;12.27;;
73841;SDS011;62184;52.006;5.924;2023-04-08T10:08:24;15.45;;;11.65;;
73841;SDS011;62184;52.006;5.924;2023-04-08T10:10:52;14.40;;;11.63;;
73841;SDS011;62184;52.006;5.924;2023-04-08T10:13:20;14.65;;;11.60;;
73841;SDS011;62184;52.006;5.924;2023-04-08T10:15:47;14.63;;;12.23;;
73841;SDS011;62184;52.006;5.924;2023-04-08T10:20:56;13.90;;;11.20;;
73841;SDS011;62184;52.006;5.924;2023-04-08T10:26:34;14.68;;;12.07;;
73841;SDS011;62184;52.006;5.924;2023-04-08T10:32:03;14.65;;;11.20;;
73841;SDS011;62184;52.006;5.924;2023-04-08T10:34:29;13.65;;;11.32;;
73841;SDS011;62184;52.006;5.924;2023-04-08T10:36:56;14.05;;;11.35;;
73841;SDS011;62184;52.006;5.924;2023-04-08T10:39:26;14.37;;;11.47;;
73841;SDS011;62184;52.006;5.924;2023-04-08T10:41:52;14.27;;;11.50;;
73841;SDS011;62184;52.006;5.924;2023-04-08T10:44:20;14.02;;;11.30;;
73841;SDS011;62184;52.006;5.924;2023-04-08T10:46:49;13.23;;;11.15;;
73841;SDS011;62184;52.006;5.924;2023-04-08T10:49:17;14.45;;;11.27;;
73841;SDS011;62184;52.006;5.924;2023-04-08T10:51:44;14.07;;;11.27;;
73841;SDS011;62184;52.006;5.924;2023-04-08T10:54:12;13.25;;;10.25;;
73841;SDS011;62184;52.006;5.924;2023-04-08T10:56:47;13.75;;;11.15;;
73841;SDS011;62184;52.006;5.924;2023-04-08T10:59:16;13.60;;;11.45;;
73841;SDS011;62184;52.006;5.924;2023-04-08T11:01:53;12.98;;;10.85;;
73841;SDS011;62184;52.006;5.924;2023-04-08T11:04:20;13.63;;;10.07;;
73841;SDS011;62184;52.006;5.924;2023-04-08T11:06:46;14.13;;;10.55;;
73841;SDS011;62184;52.006;5.924;2023-04-08T11:09:13;12.38;;;10.30;;
73841;SDS011;62184;52.006;5.924;2023-04-08T11:11:40;12.87;;;11.43;;
73841;SDS011;62184;52.006;5.924;2023-04-08T11:14:12;13.48;;;12.07;;
73841;SDS011;62184;52.006;5.924;2023-04-08T11:16:39;14.45;;;11.13;;
73841;SDS011;62184;52.006;5.924;2023-04-08T11:19:05;14.05;;;12.65;;
73841;SDS011;62184;52.006;5.924;2023-04-08T11:21:34;15.30;;;13.70;;
73841;SDS011;62184;52.006;5.924;2023-04-08T11:24:05;14.23;;;12.80;;
73841;SDS011;62184;52.006;5.924;2023-04-08T11:26:34;14.50;;;12.85;;
73841;SDS011;62184;52.006;5.924;2023-04-08T11:29:02;14.32;;;12.65;;
73841;SDS011;62184;52.006;5.924;2023-04-08T11:31:33;13.88;;;12.48;;
73841;SDS011;62184;52.006;5.924;2023-04-08T11:34:00;14.07;;;12.60;;
73841;SDS011;62184;52.006;5.924;2023-04-08T11:36:27;13.20;;;11.83;;
73841;SDS011;62184;52.006;5.924;2023-04-08T11:38:54;12.57;;;11.27;;
73841;SDS011;62184;52.006;5.924;2023-04-08T11:41:21;13.27;;;11.88;;
73841;SDS011;62184;52.006;5.924;2023-04-08T11:43:50;13.90;;;12.40;;
73841;SDS011;62184;52.006;5.924;2023-04-08T11:46:20;13.82;;;12.52;;
73841;SDS011;62184;52.006;5.924;2023-04-08T11:48:59;13.38;;;12.07;;
73841;SDS011;62184;52.006;5.924;2023-04-08T11:51:30;14.20;;;12.70;;
73841;SDS011;62184;52.006;5.924;2023-04-08T11:53:57;14.17;;;12.77;;
73841;SDS011;62184;52.006;5.924;2023-04-08T11:56:23;15.05;;;13.65;;
73841;SDS011;62184;52.006;5.924;2023-04-08T11:58:52;13.90;;;12.50;;
73841;SDS011;62184;52.006;5.924;2023-04-08T12:01:18;14.20;;;12.80;;
73841;SDS011;62184;52.006;5.924;2023-04-08T12:04:00;13.90;;;12.50;;
73841;SDS011;62184;52.006;5.924;2023-04-08T12:06:32;14.23;;;12.82;;
73841;SDS011;62184;52.006;5.924;2023-04-08T12:08:59;13.52;;;12.23;;
73841;SDS011;62184;52.006;5.924;2023-04-08T12:11:25;13.30;;;11.90;;
73841;SDS011;62184;52.006;5.924;2023-04-08T12:13:52;13.73;;;12.32;;
73841;SDS011;62184;52.006;5.924;2023-04-08T12:16:18;13.82;;;12.43;;
73841;SDS011;62184;52.006;5.924;2023-04-08T12:18:45;13.70;;;12.30;;
73841;SDS011;62184;52.006;5.924;2023-04-08T12:21:15;14.15;;;12.75;;
73841;SDS011;62184;52.006;5.924;2023-04-08T12:23:42;14.47;;;13.07;;
73841;SDS011;62184;52.006;5.924;2023-04-08T12:26:08;13.82;;;12.43;;
73841;SDS011;62184;52.006;5.924;2023-04-08T12:28:35;13.50;;;12.10;;
73841;SDS011;62184;52.006;5.924;2023-04-08T12:31:02;13.07;;;11.68;;
73841;SDS011;62184;52.006;5.924;2023-04-08T12:33:29;12.63;;;11.27;;
73841;SDS011;62184;52.006;5.924;2023-04-08T12:35:56;12.65;;;11.35;;
73841;SDS011;62184;52.006;5.924;2023-04-08T12:38:26;12.40;;;11.10;;
73841;SDS011;62184;52.006;5.924;2023-04-08T12:40:53;13.13;;;10.85;;
73841;SDS011;62184;52.006;5.924;2023-04-08T12:43:20;13.32;;;11.93;;
73841;SDS011;62184;52.006;5.924;2023-04-08T12:45:48;13.10;;;11.47;;
73841;SDS011;62184;52.006;5.924;2023-04-08T12:48:16;13.52;;;12.13;;
73841;SDS011;62184;52.006;5.924;2023-04-08T12:50:43;14.10;;;12.70;;
73841;SDS011;62184;52.006;5.924;2023-04-08T12:53:09;13.00;;;11.70;;
73841;SDS011;62184;52.006;5.924;2023-04-08T12:55:38;13.93;;;12.53;;
73841;SDS011;62184;52.006;5.924;2023-04-08T12:58:05;13.38;;;12.00;;
73841;SDS011;62184;52.006;5.924;2023-04-08T13:00:31;13.20;;;11.90;;
73841;SDS011;62184;52.006;5.924;2023-04-08T13:02:58;13.80;;;12.10;;
73841;SDS011;62184;52.006;5.924;2023-04-08T13:05:24;13.98;;;12.48;;
73841;SDS011;62184;52.006;5.924;2023-04-08T13:07:51;13.68;;;12.27;;
73841;SDS011;62184;52.006;5.924;2023-04-08T13:10:17;13.70;;;12.20;;
73841;SDS011;62184;52.006;5.924;2023-04-08T13:12:46;13.90;;;12.50;;
73841;SDS011;62184;52.006;5.924;2023-04-08T13:15:13;12.82;;;11.43;;
73841;SDS011;62184;52.006;5.924;2023-04-08T13:17:39;13.25;;;11.93;;
73841;SDS011;62184;52.006;5.924;2023-04-08T13:20:07;12.93;;;11.63;;
73841;SDS011;62184;52.006;5.924;2023-04-08T13:22:35;16.25;;;11.98;;
73841;SDS011;62184;52.006;5.924;2023-04-08T13:25:01;13.85;;;12.35;;
73841;SDS011;62184;52.006;5.924;2023-04-08T13:27:28;13.40;;;12.00;;
73841;SDS011;62184;52.006;5.924;2023-04-08T13:29:57;12.68;;;11.30;;
73841;SDS011;62184;52.006;5.924;2023-04-08T13:32:24;13.82;;;12.43;;
73841;SDS011;62184;52.006;5.924;2023-04-08T13:34:50;13.13;;;11.77;;
73841;SDS011;62184;52.006;5.924;2023-04-08T13:37:16;13.75;;;11.98;;
73841;SDS011;62184;52.006;5.924;2023-04-08T13:39:43;13.82;;;12.43;;
73841;SDS011;62184;52.006;5.924;2023-04-08T13:42:09;13.70;;;12.30;;
73841;SDS011;62184;52.006;5.924;2023-04-08T13:44:36;13.73;;;12.32;;
73841;SDS011;62184;52.006;5.924;2023-04-08T13:47:05;14.13;;;12.23;;
73841;SDS011;62184;52.006;5.924;2023-04-08T13:49:31;14.88;;;13.27;;
73841;SDS011;62184;52.006;5.924;2023-04-08T13:51:57;14.32;;;12.82;;
73841;SDS011;62184;52.006;5.924;2023-04-08T13:54:24;14.05;;;12.55;;
73841;SDS011;62184;52.006;5.924;2023-04-08T13:56:51;15.27;;;12.93;;
73841;SDS011;62184;52.006;5.924;2023-04-08T13:59:18;15.98;;;14.38;;
73841;SDS011;62184;52.006;5.924;2023-04-08T14:01:45;15.23;;;13.10;;
73841;SDS011;62184;52.006;5.924;2023-04-08T14:04:14;13.90;;;11.97;;
73841;SDS011;62184;52.006;5.924;2023-04-08T14:06:40;14.60;;;12.10;;
73841;SDS011;62184;52.006;5.924;2023-04-08T14:09:07;15.65;;;13.98;;
73841;SDS011;62184;52.006;5.924;2023-04-08T14:11:33;14.70;;;13.05;;
73841;SDS011;62184;52.006;5.924;2023-04-08T14:13:59;15.23;;;13.63;;
73841;SDS011;62184;52.006;5.924;2023-04-08T14:16:26;15.90;;;14.20;;
73841;SDS011;62184;52.006;5.924;2023-04-08T14:18:52;16.03;;;14.33;;
73841;SDS011;62184;52.006;5.924;2023-04-08T14:21:21;16.37;;;14.57;;
73841;SDS011;62184;52.006;5.924;2023-04-08T14:23:48;17.13;;;14.80;;
73841;SDS011;62184;52.006;5.924;2023-04-08T14:26:14;17.27;;;14.32;;
73841;SDS011;62184;52.006;5.924;2023-04-08T14:28:40;17.77;;;14.82;;
73841;SDS011;62184;52.006;5.924;2023-04-08T14:31:07;17.93;;;16.03;;
73841;SDS011;62184;52.006;5.924;2023-04-08T14:33:33;18.40;;;15.60;;
73841;SDS011;62184;52.006;5.924;2023-04-08T14:36:00;17.35;;;15.18;;